Terminal Aerodrome Forecast
Issued by NWS

Home | Current Version | Previous Version | Text Only | Print | Product List | Glossary On
Versions: 1 2 3 4 5 6 7 8 9 10 11 12
000
FTUS42 KGSP 050531
TAFGMU
TAF
KGMU 050531Z 0506/0606 34003KT P6SM BKN250
     FM051600 15004KT P6SM SCT070 BKN250
     FM051900 22008KT P6SM BKN070 PROB30 0523/0603 4SM TSRA BKN040CB
     FM060300 20006KT P6SM BKN070 PROB30 0603/0606 4SM TSRA
      BKN040CB=

USA.gov is the U.S. government's official web portal to all federal, state and local government web resources and services.